Terminal Aerodrome Forecast
Issued by NWS

Home | Current Version | Previous Version | Text Only | Print | Product List | Glossary On
Versions: 1 2 3 4 5 6 7 8 9 10 11 12 13 14 15 16 17 18 19 20 21 22 23 24 25 26 27
000
FTUS43 KGLD 220520
TAFMCK
TAF
KMCK 220520Z 2206/2306 04004KT P6SM BKN200
     FM221300 02010KT P6SM FEW040 SCT200
     FM222100 06010KT P6SM VCSH SCT040
     FM230000 07010KT P6SM VCTS BKN040CB
     FM230400 06007KT 5SM BR VCSH BKN040=

USA.gov is the U.S. government's official web portal to all federal, state and local government web resources and services.